EGLL

London Heathrow Airport

London, United Kingdom
METAR EGLL 211520Z AUTO VRB02KT 9999 -RA NCD 21/12 Q1018
Observed Flight Rules
Apr-21 @ 15:20 UTC (21 minutes ago) Visual Flight Rules
Wind Visibility Clouds Conditions
Variable at 2 knots 10,000+ meters
  • Clear skies
  • Light Rain
Temperatures Readings
Current 21°C / 70°F
Dewpoint 12°C / 54°F
Humidity 57%
Altimeter 30.06" Hg
Pressure 1018 hPa
Elevation 24
METAR EGLL 211520Z AUTO VRB02KT 9999 -RA NCD 21/12 Q1018
Observed Flight Rules
Apr-21 @ 15:20 UTC
(21 minutes ago)
VFR
Wind Visibility
Variable at 2 knots 10,000+ meters
Clouds
  • Clear skies
Conditions
  • Light Rain
Temperature Dewpoint
21°C / 70°F 12°C / 54°F
Humidity Altimeter Pressure
57% 30.06" Hg 1018 hPa